createdAt,value
2019-01-23T00:01:39.991Z,265.93
2019-01-23T00:04:10.231Z,279.53
2019-01-23T00:06:40.492Z,250.90
2019-01-23T00:09:10.790Z,279.67
2019-01-23T00:11:41.057Z,266.17
2019-01-23T00:14:11.288Z,263.70
2019-01-23T00:16:43.147Z,251.63
2019-01-23T00:19:13.454Z,255.77
2019-01-23T00:21:44.073Z,254.37
2019-01-23T00:24:14.304Z,280.77
2019-01-23T00:26:44.819Z,248.33
2019-01-23T00:29:15.042Z,246.87
2019-01-23T00:31:45.291Z,243.50
2019-01-23T00:34:15.515Z,253.97
2019-01-23T00:36:45.768Z,253.33
2019-01-23T00:39:15.994Z,227.73
2019-01-23T00:41:46.415Z,214.80
2019-01-23T00:44:16.658Z,237.47
2019-01-23T00:46:46.907Z,272.37
2019-01-23T00:49:17.125Z,248.83
2019-01-23T00:51:47.377Z,220.83
2019-01-23T00:54:17.605Z,239.73
2019-01-23T00:56:47.858Z,240.20
2019-01-23T00:59:18.121Z,238.50
2019-01-23T01:01:48.331Z,244.53
2019-01-23T01:04:18.565Z,246.70
2019-01-23T01:06:48.817Z,272.60
2019-01-23T01:09:19.186Z,299.67
2019-01-23T01:11:49.442Z,338.60
2019-01-23T01:14:21.219Z,233.67
2019-01-23T01:16:53.243Z,231.10
2019-01-23T01:19:23.467Z,236.37
2019-01-23T01:21:53.790Z,239.00
2019-01-23T01:24:24.024Z,239.27
2019-01-23T01:26:54.269Z,232.03
2019-01-23T01:29:24.531Z,234.70
2019-01-23T01:31:54.768Z,212.40
2019-01-23T01:34:24.997Z,206.33
2019-01-23T01:36:55.244Z,197.63
2019-01-23T01:39:25.469Z,191.83
2019-01-23T01:41:55.718Z,181.70
2019-01-23T01:44:25.946Z,199.07
2019-01-23T01:46:56.197Z,185.40
2019-01-23T01:49:41.170Z,171.80
2019-01-23T01:52:15.915Z,164.83
2019-01-23T01:54:46.141Z,167.77
2019-01-23T01:57:16.400Z,156.43
2019-01-23T01:59:46.620Z,154.20
2019-01-23T02:02:16.875Z,147.20
2019-01-23T02:04:47.102Z,125.00
2019-01-23T02:07:17.353Z,115.30
2019-01-23T02:09:47.581Z,130.43
2019-01-23T02:12:17.826Z,121.77
2019-01-23T02:14:48.120Z,119.23
2019-01-23T02:17:18.364Z,121.53
2019-01-23T02:19:48.593Z,114.43
2019-01-23T02:22:18.835Z,116.83
2019-01-23T02:24:49.060Z,113.97
2019-01-23T02:27:19.335Z,103.77
2019-01-23T02:29:49.561Z,124.20
2019-01-23T02:32:19.814Z,104.20
2019-01-23T02:34:50.047Z,100.77
2019-01-23T02:37:21.562Z,102.23
2019-01-23T02:39:51.782Z,106.63
2019-01-23T02:42:22.024Z,94.80
2019-01-23T02:44:53.418Z,92.00
2019-01-23T02:47:23.666Z,99.73
2019-01-23T02:49:54.182Z,102.57
2019-01-23T02:52:24.427Z,98.33
2019-01-23T02:54:54.656Z,99.67
2019-01-23T02:57:24.905Z,107.10
2019-01-23T02:59:55.139Z,92.80
2019-01-23T03:02:25.648Z,95.03
2019-01-23T03:04:55.879Z,106.50
2019-01-23T03:07:26.120Z,90.27
2019-01-23T03:09:56.340Z,89.30
2019-01-23T03:12:26.573Z,95.13
2019-01-23T03:14:56.799Z,94.27
2019-01-23T03:17:27.034Z,87.80
2019-01-23T03:19:57.251Z,88.70
2019-01-23T03:22:27.494Z,84.43
2019-01-23T03:24:57.729Z,86.23
2019-01-23T03:27:29.735Z,92.90
2019-01-23T03:29:59.960Z,87.30
2019-01-23T03:32:30.204Z,88.80
2019-01-23T03:35:00.429Z,89.97
2019-01-23T03:37:30.672Z,85.13
2019-01-23T03:40:00.898Z,91.23
2019-01-23T03:42:31.143Z,102.93
2019-01-23T03:45:01.362Z,83.80
2019-01-23T03:47:31.604Z,87.27
2019-01-23T03:50:02.670Z,84.23
2019-01-23T03:52:32.913Z,82.17
2019-01-23T03:55:06.545Z,79.23
2019-01-23T03:57:36.959Z,82.50
2019-01-23T04:00:12.849Z,99.63
2019-01-23T04:02:43.101Z,86.83
2019-01-23T04:05:13.323Z,90.53
2019-01-23T04:07:43.561Z,84.43
2019-01-23T04:10:15.532Z,89.90
2019-01-23T04:12:45.773Z,82.83
2019-01-23T04:15:18.927Z,90.23
2019-01-23T04:17:49.173Z,94.47
2019-01-23T04:20:21.350Z,98.63
2019-01-23T04:22:51.572Z,87.87
2019-01-23T04:25:21.786Z,82.33
2019-01-23T04:27:52.030Z,87.47
2019-01-23T04:30:23.800Z,102.03
2019-01-23T04:32:54.050Z,92.57
2019-01-23T04:35:24.273Z,89.60
2019-01-23T04:37:54.515Z,91.37
2019-01-23T04:40:24.739Z,81.20
2019-01-23T04:42:54.994Z,97.37
2019-01-23T04:45:25.219Z,91.50
2019-01-23T04:47:55.461Z,89.07
2019-01-23T04:50:27.430Z,95.67
2019-01-23T04:53:11.342Z,91.13
2019-01-23T04:55:41.577Z,79.77
2019-01-23T04:58:11.836Z,93.77
2019-01-23T05:00:42.069Z,85.93
2019-01-23T05:03:12.314Z,91.27
2019-01-23T05:05:42.548Z,83.30
2019-01-23T05:08:12.792Z,73.73
2019-01-23T05:10:43.057Z,68.67
2019-01-23T05:13:13.309Z,81.20
2019-01-23T05:15:43.532Z,77.83
2019-01-23T05:18:26.104Z,76.40
2019-01-23T05:21:05.225Z,80.63
2019-01-23T05:23:35.552Z,77.23
2019-01-23T05:26:06.977Z,77.13
2019-01-23T05:28:37.226Z,74.47
2019-01-23T05:31:09.550Z,75.60
2019-01-23T05:33:39.822Z,71.20
2019-01-23T05:36:11.244Z,75.47
2019-01-23T05:38:41.486Z,66.83
2019-01-23T05:41:11.719Z,75.20
2019-01-23T05:43:41.957Z,75.07
2019-01-23T05:46:12.224Z,87.07
2019-01-23T05:48:42.480Z,68.63
2019-01-23T05:51:13.500Z,70.83
2019-01-23T05:53:43.757Z,61.80
2019-01-23T05:56:13.996Z,56.77
2019-01-23T05:58:44.257Z,61.73
2019-01-23T06:01:14.861Z,58.97
2019-01-23T06:03:45.127Z,68.97
2019-01-23T06:06:15.340Z,63.47
2019-01-23T06:08:45.577Z,59.40
2019-01-23T06:11:15.800Z,64.87
2019-01-23T06:13:46.074Z,57.67
2019-01-23T06:16:16.299Z,48.83
2019-01-23T06:18:46.547Z,56.53
2019-01-23T06:21:16.785Z,54.37
2019-01-23T06:23:47.048Z,57.10
2019-01-23T06:26:17.266Z,62.83
2019-01-23T06:28:47.505Z,75.87
2019-01-23T06:31:17.729Z,74.57
2019-01-23T06:33:47.969Z,75.13
2019-01-23T06:36:18.272Z,102.97
2019-01-23T06:38:48.511Z,70.87
2019-01-23T06:41:18.856Z,91.00
2019-01-23T06:43:49.095Z,60.20
2019-01-23T06:46:19.320Z,68.83
2019-01-23T06:48:49.573Z,101.67
2019-01-23T06:51:21.886Z,82.20
2019-01-23T06:53:52.144Z,79.80
2019-01-23T06:56:22.359Z,72.43
2019-01-23T06:58:52.603Z,146.87
2019-01-23T07:01:22.827Z,88.07
2019-01-23T07:03:54.257Z,68.10
2019-01-23T07:06:24.476Z,62.63
2019-01-23T07:08:54.722Z,68.97
2019-01-23T07:11:26.145Z,89.80
2019-01-23T07:13:56.389Z,174.60
2019-01-23T07:16:26.613Z,58.27
2019-01-23T07:18:56.852Z,51.33
2019-01-23T07:21:27.329Z,61.47
2019-01-23T07:23:57.570Z,52.40
2019-01-23T07:26:28.701Z,48.80
2019-01-23T07:28:59.069Z,38.93
2019-01-23T07:31:29.299Z,46.20
2019-01-23T07:33:59.537Z,42.97
2019-01-23T07:36:35.450Z,35.37
2019-01-23T07:39:08.196Z,40.17
2019-01-23T07:41:38.417Z,42.23
2019-01-23T07:44:08.658Z,41.03
2019-01-23T07:46:38.874Z,32.33
2019-01-23T07:49:09.129Z,32.93
2019-01-23T07:51:40.144Z,33.47
2019-01-23T07:54:10.394Z,43.73
2019-01-23T07:56:41.831Z,49.17
2019-01-23T07:59:12.083Z,44.83
2019-01-23T08:01:42.321Z,43.63
2019-01-23T08:04:13.733Z,46.10
2019-01-23T08:06:43.954Z,60.33
2019-01-23T08:09:14.773Z,46.37
2019-01-23T08:11:44.999Z,35.60
2019-01-23T08:14:15.258Z,46.20
2019-01-23T08:16:45.493Z,49.47
2019-01-23T08:19:16.911Z,41.87
2019-01-23T08:21:47.155Z,33.33
2019-01-23T08:24:17.429Z,40.20
2019-01-23T08:26:47.678Z,61.30
2019-01-23T08:29:18.249Z,41.90
2019-01-23T08:31:48.650Z,68.77
2019-01-23T08:34:18.909Z,89.00
2019-01-23T08:36:49.152Z,46.27
2019-01-23T08:39:19.639Z,50.67
2019-01-23T08:41:54.798Z,37.90
2019-01-23T08:44:26.684Z,36.17
2019-01-23T08:46:57.044Z,39.00
2019-01-23T08:49:28.510Z,41.53
2019-01-23T08:52:00.039Z,34.13
2019-01-23T08:54:33.050Z,45.23
2019-01-23T08:57:04.987Z,42.23
2019-01-23T08:59:44.194Z,53.27
2019-01-23T09:02:19.349Z,65.17
2019-01-23T09:05:06.251Z,53.53
2019-01-23T09:07:44.751Z,44.20
2019-01-23T09:10:26.065Z,53.30
2019-01-23T09:12:56.701Z,32.03
2019-01-23T09:15:29.474Z,65.73
2019-01-23T09:18:12.010Z,52.77
2019-01-23T09:20:42.318Z,40.67
2019-01-23T09:23:12.547Z,52.93
2019-01-23T09:25:49.507Z,39.13
2019-01-23T09:28:14.728Z,34.83
2019-01-23T09:30:52.542Z,45.93
2019-01-23T09:33:29.420Z,41.53
2019-01-23T09:36:17.951Z,37.80
2019-01-23T09:39:24.624Z,27.47
2019-01-23T09:42:07.169Z,39.23
2019-01-23T09:44:49.586Z,53.93
2019-01-23T09:47:25.519Z,50.93
2019-01-23T09:50:20.181Z,62.77
2019-01-23T09:53:00.619Z,49.43
2019-01-23T09:55:30.683Z,71.63
2019-01-23T09:58:01.003Z,60.10
2019-01-23T10:00:31.727Z,39.43
2019-01-23T10:03:04.079Z,72.07
2019-01-23T10:05:42.713Z,79.37
2019-01-23T10:08:15.922Z,58.70
2019-01-23T10:10:49.654Z,117.40
2019-01-23T10:13:20.351Z,73.93
2019-01-23T10:15:51.228Z,67.50
2019-01-23T10:18:21.515Z,54.13
2019-01-23T10:20:51.770Z,70.60
2019-01-23T10:23:23.583Z,69.43
2019-01-23T10:25:53.859Z,68.10
2019-01-23T10:28:25.142Z,66.67
2019-01-23T10:30:55.384Z,60.07
2019-01-23T10:33:25.685Z,38.97
2019-01-23T10:35:57.339Z,37.67
2019-01-23T10:38:27.958Z,49.57
2019-01-23T10:40:58.193Z,52.17
2019-01-23T10:43:29.604Z,59.63
2019-01-23T10:45:59.830Z,57.80
2019-01-23T10:48:30.092Z,65.37
2019-01-23T10:51:01.478Z,43.20
2019-01-23T10:53:32.651Z,36.70
2019-01-23T10:56:02.890Z,48.30
2019-01-23T10:58:33.502Z,49.73
2019-01-23T11:01:03.924Z,65.27
2019-01-23T11:03:34.175Z,53.13
2019-01-23T11:06:04.399Z,50.10
2019-01-23T11:08:35.834Z,57.30
2019-01-23T11:11:07.260Z,40.40
2019-01-23T11:13:37.577Z,33.77
2019-01-23T11:16:09.886Z,46.80
2019-01-23T11:18:40.147Z,54.83
2019-01-23T11:21:10.374Z,56.10
2019-01-23T11:23:40.646Z,50.13
2019-01-23T11:26:10.898Z,80.63
2019-01-23T11:28:42.228Z,92.20
2019-01-23T11:31:12.465Z,72.37
2019-01-23T11:33:43.895Z,43.50
2019-01-23T11:36:14.115Z,53.57
2019-01-23T11:38:46.719Z,51.73
2019-01-23T11:41:17.097Z,43.17
2019-01-23T11:43:47.811Z,46.07
2019-01-23T11:46:18.029Z,56.67
2019-01-23T11:48:48.714Z,44.07
2019-01-23T11:51:18.939Z,37.43
2019-01-23T11:53:50.260Z,43.17
2019-01-23T11:56:20.645Z,40.07
2019-01-23T11:58:50.886Z,57.07
2019-01-23T12:01:27.332Z,38.93
2019-01-23T12:03:53.171Z,46.93
2019-01-23T12:06:23.393Z,31.77
2019-01-23T12:08:53.641Z,35.53
2019-01-23T12:11:23.864Z,40.03
2019-01-23T12:13:54.115Z,50.23
2019-01-23T12:16:25.943Z,55.43
2019-01-23T12:18:56.195Z,63.50
2019-01-23T12:21:26.481Z,56.40
2019-01-23T12:23:58.421Z,38.83
2019-01-23T12:26:28.677Z,38.70
2019-01-23T12:28:58.979Z,28.17
2019-01-23T12:31:34.892Z,40.03
2019-01-23T12:34:01.454Z,36.60
2019-01-23T12:36:31.825Z,39.90
2019-01-23T12:39:02.098Z,36.47
2019-01-23T12:41:33.946Z,34.77
2019-01-23T12:44:04.240Z,43.50
2019-01-23T12:46:34.612Z,42.03
2019-01-23T12:49:06.625Z,66.43
2019-01-23T12:51:37.011Z,55.30
2019-01-23T12:54:07.653Z,65.13
2019-01-23T12:56:37.902Z,34.07
2019-01-23T12:59:08.129Z,67.33
2019-01-23T13:01:42.132Z,73.97
2019-01-23T13:04:10.493Z,71.73
2019-01-23T13:06:40.863Z,69.50
2019-01-23T13:09:11.093Z,49.43
2019-01-23T13:11:41.349Z,51.00
2019-01-23T13:14:11.579Z,55.80
2019-01-23T13:16:41.828Z,44.87
2019-01-23T13:19:12.063Z,52.03
2019-01-23T13:21:42.766Z,58.00
2019-01-23T13:24:12.990Z,46.03
2019-01-23T13:26:46.632Z,45.20
2019-01-23T13:29:16.867Z,65.87
2019-01-23T13:31:49.265Z,67.00
2019-01-23T13:34:19.130Z,57.33
2019-01-23T13:36:49.668Z,65.87
2019-01-23T13:39:19.891Z,96.77
2019-01-23T13:41:50.136Z,77.97
2019-01-23T13:44:20.453Z,68.80
2019-01-23T13:46:50.710Z,69.57
2019-01-23T13:49:20.932Z,73.17
2019-01-23T13:51:51.172Z,57.70
2019-01-23T13:54:22.177Z,43.57
2019-01-23T13:56:52.418Z,60.07
2019-01-23T13:59:22.644Z,67.53
2019-01-23T14:01:56.438Z,107.77
2019-01-23T14:04:24.830Z,59.43
2019-01-23T14:06:55.086Z,41.53
2019-01-23T14:09:25.314Z,48.00
2019-01-23T14:11:56.758Z,54.37
2019-01-23T14:14:26.992Z,82.80
2019-01-23T14:16:57.243Z,55.87
2019-01-23T14:19:27.490Z,48.40
2019-01-23T14:22:06.954Z,62.77
2019-01-23T14:24:37.418Z,51.20
2019-01-23T14:27:07.699Z,47.03
2019-01-23T14:29:37.922Z,54.03
2019-01-23T14:32:08.257Z,47.17
2019-01-23T14:34:38.491Z,35.63
2019-01-23T14:37:09.771Z,50.97
2019-01-23T14:39:40.009Z,45.53
2019-01-23T14:42:10.251Z,45.80
2019-01-23T14:44:40.496Z,58.83
2019-01-23T14:47:10.762Z,53.83
2019-01-23T14:49:40.978Z,50.30
2019-01-23T14:52:11.257Z,88.93
2019-01-23T14:54:43.468Z,82.80
2019-01-23T14:57:14.908Z,95.77
2019-01-23T14:59:45.150Z,66.10
2019-01-23T15:02:15.393Z,94.67
2019-01-23T15:04:45.622Z,54.87
2019-01-23T15:07:15.890Z,57.43
2019-01-23T15:09:46.121Z,48.73
2019-01-23T15:12:16.377Z,47.30
2019-01-23T15:14:47.685Z,32.73
2019-01-23T15:17:17.976Z,45.03
2019-01-23T15:19:48.580Z,71.00
2019-01-23T15:22:20.612Z,56.87
2019-01-23T15:24:50.873Z,78.27
2019-01-23T15:27:21.902Z,68.30
2019-01-23T15:29:52.136Z,57.17
2019-01-23T15:32:22.385Z,36.10
2019-01-23T15:34:52.633Z,49.40
2019-01-23T15:37:22.892Z,79.23
2019-01-23T15:39:53.277Z,54.70
2019-01-23T15:42:23.528Z,46.40
2019-01-23T15:44:54.913Z,96.37
2019-01-23T15:47:25.525Z,67.80
2019-01-23T15:49:55.767Z,54.13
2019-01-23T15:52:29.008Z,56.27
2019-01-23T15:55:01.406Z,55.27
2019-01-23T15:57:31.655Z,87.07
2019-01-23T16:00:01.885Z,54.40
2019-01-23T16:02:32.424Z,61.93
2019-01-23T16:05:02.647Z,44.00
2019-01-23T16:07:34.689Z,52.10
2019-01-23T16:10:12.652Z,60.73
2019-01-23T16:12:42.930Z,53.20
2019-01-23T16:15:20.506Z,58.90
2019-01-23T16:17:50.977Z,54.73
2019-01-23T16:20:21.441Z,48.17
2019-01-23T16:22:54.666Z,65.37
2019-01-23T16:25:27.514Z,69.03
2019-01-23T16:28:00.457Z,72.37
2019-01-23T16:30:36.598Z,104.40
2019-01-23T16:33:09.863Z,87.13
2019-01-23T16:35:40.278Z,76.87
2019-01-23T16:38:10.533Z,48.20
2019-01-23T16:40:41.789Z,65.90
2019-01-23T16:43:12.196Z,56.73
2019-01-23T16:45:44.526Z,64.77
2019-01-23T16:48:22.324Z,131.17
2019-01-23T16:50:54.941Z,64.90
2019-01-23T16:53:28.065Z,50.97
2019-01-23T16:55:59.311Z,43.70
2019-01-23T16:58:31.655Z,42.70
2019-01-23T17:01:01.846Z,69.70
2019-01-23T17:03:32.278Z,83.83
2019-01-23T17:06:02.569Z,110.13
2019-01-23T17:08:32.962Z,82.30
2019-01-23T17:11:04.751Z,68.50
2019-01-23T17:13:35.219Z,63.67
2019-01-23T17:16:05.572Z,42.50
2019-01-23T17:18:36.842Z,51.73
2019-01-23T17:21:07.081Z,43.80
2019-01-23T17:23:37.449Z,39.23
2019-01-23T17:26:08.671Z,70.97
2019-01-23T17:28:40.798Z,107.63
2019-01-23T17:31:12.208Z,83.07
2019-01-23T17:33:42.512Z,86.03
2019-01-23T17:36:14.174Z,52.90
2019-01-23T17:38:44.440Z,76.10
2019-01-23T17:41:15.846Z,89.20
2019-01-23T17:43:46.569Z,95.87
2019-01-23T17:46:16.916Z,48.50
2019-01-23T17:48:48.275Z,53.00
2019-01-23T17:51:18.888Z,76.17
2019-01-23T17:53:49.435Z,54.57
2019-01-23T17:56:20.426Z,62.77
2019-01-23T17:58:50.678Z,57.30
2019-01-23T18:01:20.914Z,69.37
2019-01-23T18:03:51.255Z,153.47
2019-01-23T18:06:22.443Z,83.43
2019-01-23T18:08:54.409Z,87.87
2019-01-23T18:11:24.650Z,108.23
2019-01-23T18:13:55.078Z,117.03
2019-01-23T18:16:28.752Z,81.13
2019-01-23T18:19:00.796Z,79.47
2019-01-23T18:21:31.026Z,56.67
2019-01-23T18:24:01.325Z,63.50
2019-01-23T18:26:37.580Z,59.17
2019-01-23T18:29:06.433Z,115.93
2019-01-23T18:31:36.826Z,75.50
2019-01-23T18:34:20.809Z,93.47
2019-01-23T18:36:57.105Z,140.77
2019-01-23T18:39:42.721Z,86.20
2019-01-23T18:42:30.889Z,56.30
2019-01-23T18:45:05.281Z,47.97
2019-01-23T18:47:45.822Z,57.23
2019-01-23T18:50:26.709Z,52.63
2019-01-23T18:53:03.289Z,43.80
2019-01-23T18:55:36.484Z,47.00
2019-01-23T18:58:08.526Z,43.77
2019-01-23T19:00:38.773Z,68.63
2019-01-23T19:03:10.933Z,55.97
2019-01-23T19:05:49.103Z,42.80
2019-01-23T19:08:20.770Z,44.83
2019-01-23T19:10:55.080Z,44.60
2019-01-23T19:13:25.553Z,61.07
2019-01-23T19:16:00.373Z,43.23
2019-01-23T19:18:31.906Z,52.83
2019-01-23T19:21:03.307Z,72.80
2019-01-23T19:23:36.688Z,83.03
2019-01-23T19:26:07.263Z,109.10
2019-01-23T19:28:38.485Z,104.17
2019-01-23T19:31:09.344Z,125.60
2019-01-23T19:33:40.954Z,93.80
2019-01-23T19:36:13.813Z,123.87
2019-01-23T19:38:45.901Z,122.60
2019-01-23T19:41:20.291Z,135.07
2019-01-23T19:43:48.162Z,58.07
2019-01-23T19:46:19.354Z,73.90
2019-01-23T19:48:49.603Z,104.50
2019-01-23T19:51:19.861Z,52.00
2019-01-23T19:53:50.087Z,47.10
2019-01-23T19:56:21.113Z,46.77
2019-01-23T19:58:52.963Z,38.27
2019-01-23T20:01:23.216Z,38.10
2019-01-23T20:03:53.457Z,29.57
2019-01-23T20:06:23.704Z,37.03
2019-01-23T20:08:54.458Z,32.27
2019-01-23T20:11:26.799Z,65.50
2019-01-23T20:13:57.321Z,29.97
2019-01-23T20:16:27.588Z,35.40
2019-01-23T20:18:58.506Z,75.03
2019-01-23T20:21:29.113Z,57.17
2019-01-23T20:23:59.335Z,62.53
2019-01-23T20:26:30.573Z,69.73
2019-01-23T20:29:00.809Z,36.23
2019-01-23T20:31:31.084Z,99.47
2019-01-23T20:34:01.319Z,45.87
2019-01-23T20:36:32.694Z,49.47
2019-01-23T20:39:07.948Z,81.07
2019-01-23T20:41:39.879Z,90.23
2019-01-23T20:44:12.228Z,93.43
2019-01-23T20:46:44.339Z,51.23
2019-01-23T20:49:16.078Z,100.50
2019-01-23T20:51:47.564Z,96.63
2019-01-23T20:54:17.803Z,90.67
2019-01-23T20:56:50.166Z,61.93
2019-01-23T20:59:21.270Z,42.00
2019-01-23T21:01:52.726Z,61.53
2019-01-23T21:04:24.861Z,50.87
2019-01-23T21:06:55.111Z,52.83
2019-01-23T21:09:25.352Z,38.97
2019-01-23T21:11:56.048Z,32.10
2019-01-23T21:14:26.586Z,56.13
2019-01-23T21:16:57.693Z,56.80
2019-01-23T21:19:30.027Z,51.53
2019-01-23T21:22:04.638Z,45.83
2019-01-23T21:24:35.169Z,55.83
2019-01-23T21:27:06.630Z,48.63
2019-01-23T21:29:37.432Z,47.33
2019-01-23T21:32:08.619Z,37.90
2019-01-23T21:34:38.867Z,47.47
2019-01-23T21:37:12.745Z,52.63
2019-01-23T21:39:44.270Z,61.70
2019-01-23T21:42:14.717Z,46.13
2019-01-23T21:44:44.961Z,58.67
2019-01-23T21:47:15.216Z,58.57
2019-01-23T21:49:48.728Z,35.87
2019-01-23T21:52:19.007Z,54.87
2019-01-23T21:54:49.302Z,84.80
2019-01-23T21:57:20.982Z,92.53
2019-01-23T21:59:54.477Z,48.77
2019-01-23T22:02:24.778Z,86.07
2019-01-23T22:04:55.336Z,118.30
2019-01-23T22:07:25.708Z,69.83
2019-01-23T22:09:57.490Z,71.70
2019-01-23T22:12:27.828Z,53.43
2019-01-23T22:15:02.038Z,44.97
2019-01-23T22:17:32.660Z,81.83
2019-01-23T22:20:03.547Z,159.10
2019-01-23T22:22:35.872Z,26.77
2019-01-23T22:25:07.426Z,35.83
2019-01-23T22:27:37.760Z,41.60
2019-01-23T22:30:15.198Z,54.47
2019-01-23T22:32:45.579Z,52.83
2019-01-23T22:35:20.113Z,44.80
2019-01-23T22:37:53.567Z,42.47
2019-01-23T22:40:24.271Z,49.60
2019-01-23T22:42:57.551Z,43.80
2019-01-23T22:45:28.955Z,37.07
2019-01-23T22:47:59.197Z,32.73
2019-01-23T22:50:30.618Z,29.33
2019-01-23T22:53:00.949Z,42.93
2019-01-23T22:55:31.376Z,49.07
2019-01-23T22:58:01.626Z,51.97
2019-01-23T23:00:39.659Z,55.20
2019-01-23T23:03:12.928Z,88.53
2019-01-23T23:05:45.796Z,78.90
2019-01-23T23:08:16.034Z,42.63
2019-01-23T23:10:49.355Z,26.90
2019-01-23T23:13:20.779Z,30.03
2019-01-23T23:15:52.205Z,32.27
2019-01-23T23:18:22.451Z,31.60
2019-01-23T23:20:53.875Z,23.73
2019-01-23T23:23:24.127Z,27.23
2019-01-23T23:25:55.556Z,28.70
2019-01-23T23:28:26.207Z,30.07
2019-01-23T23:30:56.667Z,28.27
2019-01-23T23:33:26.876Z,41.17
2019-01-23T23:35:59.216Z,34.17
2019-01-23T23:38:29.463Z,28.50
2019-01-23T23:41:00.893Z,31.17
2019-01-23T23:43:31.135Z,29.43
2019-01-23T23:46:02.569Z,27.57
2019-01-23T23:48:32.821Z,32.70
2019-01-23T23:51:04.272Z,42.73
2019-01-23T23:53:34.490Z,56.40
2019-01-23T23:56:05.898Z,44.47
2019-01-23T23:58:36.144Z,42.10
